sensor_id;sensor_type;location;lat;lon;timestamp;pressure;altitude;pressure_sealevel;temperature;humidity
63556;BME280;49700;48.072;7.800;2023-04-08T00:00:34;99852.81;;;8.83;66.47
63556;BME280;49700;48.072;7.800;2023-04-08T00:03:01;99856.06;;;8.89;66.29
63556;BME280;49700;48.072;7.800;2023-04-08T00:05:26;99857.66;;;8.91;66.52
63556;BME280;49700;48.072;7.800;2023-04-08T00:07:52;99856.78;;;8.91;66.85
63556;BME280;49700;48.072;7.800;2023-04-08T00:10:18;99851.66;;;8.89;66.67
63556;BME280;49700;48.072;7.800;2023-04-08T00:12:43;99843.88;;;8.88;66.77
63556;BME280;49700;48.072;7.800;2023-04-08T00:15:09;99843.09;;;8.85;66.78
63556;BME280;49700;48.072;7.800;2023-04-08T00:17:34;99845.72;;;8.85;66.69
63556;BME280;49700;48.072;7.800;2023-04-08T00:20:00;99846.72;;;8.83;66.80
63556;BME280;49700;48.072;7.800;2023-04-08T00:22:25;99847.88;;;8.77;66.76
63556;BME280;49700;48.072;7.800;2023-04-08T00:24:51;99852.69;;;8.69;66.96
63556;BME280;49700;48.072;7.800;2023-04-08T00:27:16;99853.09;;;8.61;67.21
63556;BME280;49700;48.072;7.800;2023-04-08T00:29:45;99850.72;;;8.57;67.36
63556;BME280;49700;48.072;7.800;2023-04-08T00:32:10;99858.63;;;8.55;67.32
63556;BME280;49700;48.072;7.800;2023-04-08T00:34:36;99861.41;;;8.52;67.42
63556;BME280;49700;48.072;7.800;2023-04-08T00:37:02;99852.09;;;8.47;67.35
63556;BME280;49700;48.072;7.800;2023-04-08T00:39:28;99853.88;;;8.46;67.49
63556;BME280;49700;48.072;7.800;2023-04-08T00:41:53;99848.88;;;8.41;67.46
63556;BME280;49700;48.072;7.800;2023-04-08T00:44:18;99856.72;;;8.41;67.72
63556;BME280;49700;48.072;7.800;2023-04-08T00:46:44;99855.03;;;8.40;67.67
63556;BME280;49700;48.072;7.800;2023-04-08T00:49:10;99846.38;;;8.38;67.74
63556;BME280;49700;48.072;7.800;2023-04-08T00:51:36;99855.38;;;8.33;67.63
63556;BME280;49700;48.072;7.800;2023-04-08T00:54:02;99854.94;;;8.25;67.77
63556;BME280;49700;48.072;7.800;2023-04-08T00:56:31;99857.25;;;8.13;67.93
63556;BME280;49700;48.072;7.800;2023-04-08T00:58:59;99854.91;;;8.07;68.03
63556;BME280;49700;48.072;7.800;2023-04-08T01:09:24;99867.94;;;7.72;68.64
63556;BME280;49700;48.072;7.800;2023-04-08T01:11:52;99870.84;;;7.66;68.67
63556;BME280;49700;48.072;7.800;2023-04-08T01:14:25;99866.06;;;7.57;68.65
63556;BME280;49700;48.072;7.800;2023-04-08T01:16:54;99869.06;;;7.48;68.98
63556;BME280;49700;48.072;7.800;2023-04-08T01:19:30;99873.81;;;7.40;69.34
63556;BME280;49700;48.072;7.800;2023-04-08T01:22:04;99873.91;;;7.38;69.15
63556;BME280;49700;48.072;7.800;2023-04-08T01:24:38;99872.06;;;7.40;69.06
63556;BME280;49700;48.072;7.800;2023-04-08T01:27:05;99865.88;;;7.43;69.12
63556;BME280;49700;48.072;7.800;2023-04-08T01:29:33;99866.56;;;7.46;69.10
63556;BME280;49700;48.072;7.800;2023-04-08T01:31:59;99864.72;;;7.48;68.95
63556;BME280;49700;48.072;7.800;2023-04-08T01:34:27;99858.50;;;7.51;68.86
63556;BME280;49700;48.072;7.800;2023-04-08T01:36:56;99859.25;;;7.53;68.76
63556;BME280;49700;48.072;7.800;2023-04-08T01:39:23;99866.97;;;7.56;68.55
63556;BME280;49700;48.072;7.800;2023-04-08T01:41:52;99869.59;;;7.56;68.81
63556;BME280;49700;48.072;7.800;2023-04-08T01:44:19;99870.78;;;7.49;68.78
63556;BME280;49700;48.072;7.800;2023-04-08T01:46:46;99864.38;;;7.37;69.20
63556;BME280;49700;48.072;7.800;2023-04-08T01:49:12;99865.56;;;7.30;69.49
63556;BME280;49700;48.072;7.800;2023-04-08T01:51:39;99868.47;;;7.24;70.16
63556;BME280;49700;48.072;7.800;2023-04-08T01:54:05;99860.69;;;7.22;70.00
63556;BME280;49700;48.072;7.800;2023-04-08T01:56:32;99866.84;;;7.21;70.20
63556;BME280;49700;48.072;7.800;2023-04-08T01:59:01;99863.31;;;7.22;70.25
63556;BME280;49700;48.072;7.800;2023-04-08T02:01:31;99869.22;;;7.26;70.03
63556;BME280;49700;48.072;7.800;2023-04-08T02:03:59;99867.34;;;7.29;69.89
63556;BME280;49700;48.072;7.800;2023-04-08T02:06:26;99870.00;;;7.28;70.24
63556;BME280;49700;48.072;7.800;2023-04-08T02:08:55;99864.16;;;7.23;70.56
63556;BME280;49700;48.072;7.800;2023-04-08T02:11:20;99871.44;;;7.16;70.93
63556;BME280;49700;48.072;7.800;2023-04-08T02:13:46;99876.84;;;7.12;71.29
63556;BME280;49700;48.072;7.800;2023-04-08T02:16:31;99882.06;;;7.12;71.35
63556;BME280;49700;48.072;7.800;2023-04-08T02:19:09;99878.34;;;7.17;71.39
63556;BME280;49700;48.072;7.800;2023-04-08T02:21:43;99875.53;;;7.22;71.00
63556;BME280;49700;48.072;7.800;2023-04-08T02:24:12;99876.91;;;7.29;71.04
63556;BME280;49700;48.072;7.800;2023-04-08T02:26:38;99875.72;;;7.36;70.71
63556;BME280;49700;48.072;7.800;2023-04-08T02:29:04;99875.53;;;7.41;70.68
63556;BME280;49700;48.072;7.800;2023-04-08T02:31:32;99876.31;;;7.43;70.18
63556;BME280;49700;48.072;7.800;2023-04-08T02:33:58;99877.94;;;7.45;70.49
63556;BME280;49700;48.072;7.800;2023-04-08T02:36:31;99882.25;;;7.46;70.38
63556;BME280;49700;48.072;7.800;2023-04-08T02:38:59;99876.91;;;7.48;70.42
63556;BME280;49700;48.072;7.800;2023-04-08T02:41:27;99880.31;;;7.50;70.10
63556;BME280;49700;48.072;7.800;2023-04-08T02:43:54;99879.28;;;7.54;70.00
63556;BME280;49700;48.072;7.800;2023-04-08T02:46:19;99873.19;;;7.53;69.99
63556;BME280;49700;48.072;7.800;2023-04-08T02:48:45;99870.50;;;7.55;70.10
63556;BME280;49700;48.072;7.800;2023-04-08T02:51:10;99879.28;;;7.54;69.88
63556;BME280;49700;48.072;7.800;2023-04-08T02:53:36;99879.13;;;7.57;70.11
63556;BME280;49700;48.072;7.800;2023-04-08T02:56:01;99876.41;;;7.59;69.83
63556;BME280;49700;48.072;7.800;2023-04-08T02:58:27;99876.50;;;7.57;69.70
63556;BME280;49700;48.072;7.800;2023-04-08T03:00:52;99874.03;;;7.54;69.91
63556;BME280;49700;48.072;7.800;2023-04-08T03:03:18;99871.34;;;7.56;70.01
63556;BME280;49700;48.072;7.800;2023-04-08T03:05:43;99872.91;;;7.60;69.98
63556;BME280;49700;48.072;7.800;2023-04-08T03:08:08;99868.53;;;7.60;70.37
63556;BME280;49700;48.072;7.800;2023-04-08T03:10:34;99859.75;;;7.61;70.11
63556;BME280;49700;48.072;7.800;2023-04-08T03:12:59;99863.22;;;7.62;69.96
63556;BME280;49700;48.072;7.800;2023-04-08T03:15:25;99863.13;;;7.63;70.06
63556;BME280;49700;48.072;7.800;2023-04-08T03:17:50;99861.47;;;7.62;69.96
63556;BME280;49700;48.072;7.800;2023-04-08T03:20:16;99863.13;;;7.63;69.98
63556;BME280;49700;48.072;7.800;2023-04-08T03:22:41;99866.38;;;7.68;69.96
63556;BME280;49700;48.072;7.800;2023-04-08T03:25:07;99864.25;;;7.76;69.81
63556;BME280;49700;48.072;7.800;2023-04-08T03:27:32;99870.75;;;7.87;69.53
63556;BME280;49700;48.072;7.800;2023-04-08T03:29:58;99868.66;;;7.93;69.37
63556;BME280;49700;48.072;7.800;2023-04-08T03:32:23;99865.69;;;8.01;69.26
63556;BME280;49700;48.072;7.800;2023-04-08T03:34:49;99864.78;;;8.02;69.13
63556;BME280;49700;48.072;7.800;2023-04-08T03:37:17;99872.63;;;8.02;69.17
63556;BME280;49700;48.072;7.800;2023-04-08T03:39:43;99873.47;;;8.03;69.28
63556;BME280;49700;48.072;7.800;2023-04-08T03:42:08;99875.50;;;7.96;69.02
63556;BME280;49700;48.072;7.800;2023-04-08T03:44:34;99879.22;;;7.92;69.40
63556;BME280;49700;48.072;7.800;2023-04-08T03:46:59;99870.91;;;7.84;69.43
63556;BME280;49700;48.072;7.800;2023-04-08T03:49:24;99876.53;;;7.74;69.61
63556;BME280;49700;48.072;7.800;2023-04-08T03:51:50;99875.22;;;7.66;69.71
63556;BME280;49700;48.072;7.800;2023-04-08T03:54:15;99879.97;;;7.58;69.81
63556;BME280;49700;48.072;7.800;2023-04-08T03:56:41;99871.47;;;7.52;69.90
63556;BME280;49700;48.072;7.800;2023-04-08T03:59:06;99868.97;;;7.51;70.37
63556;BME280;49700;48.072;7.800;2023-04-08T04:01:32;99874.03;;;7.54;70.31
63556;BME280;49700;48.072;7.800;2023-04-08T04:03:57;99864.22;;;7.59;69.99
63556;BME280;49700;48.072;7.800;2023-04-08T04:06:22;99863.44;;;7.57;70.11
63556;BME280;49700;48.072;7.800;2023-04-08T04:08:48;99869.22;;;7.64;70.00
63556;BME280;49700;48.072;7.800;2023-04-08T04:11:15;99868.00;;;7.71;69.82
63556;BME280;49700;48.072;7.800;2023-04-08T04:13:40;99878.88;;;7.81;69.59
63556;BME280;49700;48.072;7.800;2023-04-08T04:16:05;99875.41;;;7.80;69.57
63556;BME280;49700;48.072;7.800;2023-04-08T04:18:31;99868.50;;;7.79;69.37
63556;BME280;49700;48.072;7.800;2023-04-08T04:20:56;99869.31;;;7.80;69.62
63556;BME280;49700;48.072;7.800;2023-04-08T04:23:21;99871.69;;;7.86;69.60
63556;BME280;49700;48.072;7.800;2023-04-08T04:25:50;99872.16;;;7.94;69.26
63556;BME280;49700;48.072;7.800;2023-04-08T04:28:15;99871.84;;;8.00;69.26
63556;BME280;49700;48.072;7.800;2023-04-08T04:30:41;99868.91;;;8.06;68.87
63556;BME280;49700;48.072;7.800;2023-04-08T04:33:06;99866.94;;;8.11;68.84
63556;BME280;49700;48.072;7.800;2023-04-08T04:35:32;99877.19;;;8.16;68.65
63556;BME280;49700;48.072;7.800;2023-04-08T04:37:58;99874.47;;;8.17;68.60
63556;BME280;49700;48.072;7.800;2023-04-08T04:40:24;99885.72;;;8.19;68.84
63556;BME280;49700;48.072;7.800;2023-04-08T04:42:49;99884.78;;;8.20;68.74
63556;BME280;49700;48.072;7.800;2023-04-08T04:45:15;99888.94;;;8.25;68.57
63556;BME280;49700;48.072;7.800;2023-04-08T04:47:40;99895.81;;;8.27;68.24
63556;BME280;49700;48.072;7.800;2023-04-08T04:50:06;99890.72;;;8.24;68.48
63556;BME280;49700;48.072;7.800;2023-04-08T04:52:31;99892.63;;;8.20;68.45
63556;BME280;49700;48.072;7.800;2023-04-08T04:54:57;99902.34;;;8.18;68.62
63556;BME280;49700;48.072;7.800;2023-04-08T04:57:22;99891.00;;;8.18;68.63
63556;BME280;49700;48.072;7.800;2023-04-08T04:59:48;99899.09;;;8.13;68.59
63556;BME280;49700;48.072;7.800;2023-04-08T05:02:13;99900.16;;;8.09;68.71
63556;BME280;49700;48.072;7.800;2023-04-08T05:04:39;99900.53;;;8.02;68.80
63556;BME280;49700;48.072;7.800;2023-04-08T05:09:36;99901.13;;;7.89;69.04
63556;BME280;49700;48.072;7.800;2023-04-08T05:12:02;99911.75;;;7.86;69.12
63556;BME280;49700;48.072;7.800;2023-04-08T05:14:28;99907.34;;;7.87;69.20
63556;BME280;49700;48.072;7.800;2023-04-08T05:16:54;99915.06;;;7.90;69.35
63556;BME280;49700;48.072;7.800;2023-04-08T05:19:20;99919.97;;;7.96;69.13
63556;BME280;49700;48.072;7.800;2023-04-08T05:21:46;99910.94;;;8.03;68.78
63556;BME280;49700;48.072;7.800;2023-04-08T05:24:11;99915.84;;;8.09;68.79
63556;BME280;49700;48.072;7.800;2023-04-08T05:26:36;99920.03;;;8.13;68.54
63556;BME280;49700;48.072;7.800;2023-04-08T05:29:02;99916.31;;;8.17;68.58
63556;BME280;49700;48.072;7.800;2023-04-08T05:31:27;99923.97;;;8.22;68.31
63556;BME280;49700;48.072;7.800;2023-04-08T05:33:53;99928.19;;;8.25;68.29
63556;BME280;49700;48.072;7.800;2023-04-08T05:36:18;99918.72;;;8.22;68.33
63556;BME280;49700;48.072;7.800;2023-04-08T05:38:43;99922.50;;;8.16;68.46
63556;BME280;49700;48.072;7.800;2023-04-08T05:41:09;99923.66;;;8.11;68.56
63556;BME280;49700;48.072;7.800;2023-04-08T05:43:35;99928.78;;;8.12;68.70
63556;BME280;49700;48.072;7.800;2023-04-08T05:46:07;99935.56;;;8.16;68.83
63556;BME280;49700;48.072;7.800;2023-04-08T05:48:33;99932.75;;;8.21;68.42
63556;BME280;49700;48.072;7.800;2023-04-08T05:50:59;99924.75;;;8.24;68.35
63556;BME280;49700;48.072;7.800;2023-04-08T05:53:25;99935.13;;;8.26;68.29
63556;BME280;49700;48.072;7.800;2023-04-08T05:55:50;99939.50;;;8.25;68.36
63556;BME280;49700;48.072;7.800;2023-04-08T05:58:16;99937.88;;;8.23;68.39
63556;BME280;49700;48.072;7.800;2023-04-08T06:00:41;99943.22;;;8.21;68.49
63556;BME280;49700;48.072;7.800;2023-04-08T06:03:06;99945.59;;;8.26;68.45
63556;BME280;49700;48.072;7.800;2023-04-08T06:05:32;99947.94;;;8.32;68.44
63556;BME280;49700;48.072;7.800;2023-04-08T06:07:57;99952.06;;;8.36;68.34
63556;BME280;49700;48.072;7.800;2023-04-08T06:10:23;99958.81;;;8.41;68.24
63556;BME280;49700;48.072;7.800;2023-04-08T06:12:48;99964.66;;;8.47;68.04
63556;BME280;49700;48.072;7.800;2023-04-08T06:15:13;99967.06;;;8.51;68.04
63556;BME280;49700;48.072;7.800;2023-04-08T06:17:40;99964.44;;;8.51;68.10
63556;BME280;49700;48.072;7.800;2023-04-08T06:20:06;99965.28;;;8.52;68.16
63556;BME280;49700;48.072;7.800;2023-04-08T06:22:34;99970.47;;;8.53;68.29
63556;BME280;49700;48.072;7.800;2023-04-08T06:25:00;99970.31;;;8.56;68.07
63556;BME280;49700;48.072;7.800;2023-04-08T06:27:26;99972.16;;;8.54;68.12
63556;BME280;49700;48.072;7.800;2023-04-08T06:29:51;99973.84;;;8.55;68.37
63556;BME280;49700;48.072;7.800;2023-04-08T06:32:17;99974.63;;;8.57;68.13
63556;BME280;49700;48.072;7.800;2023-04-08T06:34:46;99978.00;;;8.59;68.07
63556;BME280;49700;48.072;7.800;2023-04-08T06:37:12;99978.78;;;8.61;68.28
63556;BME280;49700;48.072;7.800;2023-04-08T06:39:37;99973.56;;;8.61;68.47
63556;BME280;49700;48.072;7.800;2023-04-08T06:42:03;99976.91;;;8.63;68.48
63556;BME280;49700;48.072;7.800;2023-04-08T06:44:51;99972.41;;;8.67;68.36
63556;BME280;49700;48.072;7.800;2023-04-08T06:47:16;99976.63;;;8.70;68.46
63556;BME280;49700;48.072;7.800;2023-04-08T06:49:42;99972.84;;;8.75;68.37
63556;BME280;49700;48.072;7.800;2023-04-08T06:52:07;99971.75;;;8.79;68.24
63556;BME280;49700;48.072;7.800;2023-04-08T06:54:32;99971.44;;;8.85;68.20
63556;BME280;49700;48.072;7.800;2023-04-08T06:56:58;99978.19;;;8.91;68.00
63556;BME280;49700;48.072;7.800;2023-04-08T06:59:23;99979.91;;;8.91;68.02
63556;BME280;49700;48.072;7.800;2023-04-08T07:01:49;99983.41;;;8.91;68.32
63556;BME280;49700;48.072;7.800;2023-04-08T07:04:14;99980.91;;;8.88;68.47
63556;BME280;49700;48.072;7.800;2023-04-08T07:06:39;99984.41;;;8.89;68.49
63556;BME280;49700;48.072;7.800;2023-04-08T07:09:05;99984.16;;;8.93;68.31
63556;BME280;49700;48.072;7.800;2023-04-08T07:11:31;99988.34;;;8.97;68.33
63556;BME280;49700;48.072;7.800;2023-04-08T07:13:56;99982.72;;;9.05;68.11
63556;BME280;49700;48.072;7.800;2023-04-08T07:16:21;99987.47;;;9.14;68.07
63556;BME280;49700;48.072;7.800;2023-04-08T07:18:47;99984.28;;;9.25;67.64
63556;BME280;49700;48.072;7.800;2023-04-08T07:21:12;99984.56;;;9.36;67.54
63556;BME280;49700;48.072;7.800;2023-04-08T07:23:37;99987.56;;;9.46;67.12
63556;BME280;49700;48.072;7.800;2023-04-08T07:26:03;99994.84;;;9.57;67.01
63556;BME280;49700;48.072;7.800;2023-04-08T07:28:30;99994.28;;;9.67;66.62
63556;BME280;49700;48.072;7.800;2023-04-08T07:30:55;99993.88;;;9.75;66.48
63556;BME280;49700;48.072;7.800;2023-04-08T07:33:21;99993.53;;;9.81;66.26
63556;BME280;49700;48.072;7.800;2023-04-08T07:35:47;99992.34;;;9.87;66.25
63556;BME280;49700;48.072;7.800;2023-04-08T07:38:13;99986.88;;;9.91;66.01
63556;BME280;49700;48.072;7.800;2023-04-08T07:40:38;99994.31;;;9.99;66.07
63556;BME280;49700;48.072;7.800;2023-04-08T07:43:04;99990.50;;;10.05;65.59
63556;BME280;49700;48.072;7.800;2023-04-08T07:45:29;99993.38;;;10.16;65.52
63556;BME280;49700;48.072;7.800;2023-04-08T07:47:55;99991.78;;;10.29;65.22
63556;BME280;49700;48.072;7.800;2023-04-08T07:50:20;99994.56;;;10.42;64.71
63556;BME280;49700;48.072;7.800;2023-04-08T07:52:46;99996.41;;;10.56;64.52
63556;BME280;49700;48.072;7.800;2023-04-08T07:55:12;99997.88;;;10.76;63.98
63556;BME280;49700;48.072;7.800;2023-04-08T07:57:37;99984.31;;;10.98;63.48
63556;BME280;49700;48.072;7.800;2023-04-08T08:00:03;99981.19;;;11.21;62.48
63556;BME280;49700;48.072;7.800;2023-04-08T08:02:38;99992.38;;;11.54;61.81
63556;BME280;49700;48.072;7.800;2023-04-08T08:05:04;99988.84;;;11.96;60.56
63556;BME280;49700;48.072;7.800;2023-04-08T08:07:30;99986.31;;;12.36;59.58
63556;BME280;49700;48.072;7.800;2023-04-08T08:09:56;99986.16;;;12.52;58.87
63556;BME280;49700;48.072;7.800;2023-04-08T08:12:21;99996.50;;;12.55;58.62
63556;BME280;49700;48.072;7.800;2023-04-08T08:14:46;99994.19;;;12.50;58.70
63556;BME280;49700;48.072;7.800;2023-04-08T08:17:12;99990.03;;;12.46;58.84
63556;BME280;49700;48.072;7.800;2023-04-08T08:19:37;99992.03;;;12.43;58.83
63556;BME280;49700;48.072;7.800;2023-04-08T08:22:03;99989.41;;;12.43;59.17
63556;BME280;49700;48.072;7.800;2023-04-08T08:24:28;99999.75;;;12.46;59.12
63556;BME280;49700;48.072;7.800;2023-04-08T08:26:53;99999.53;;;12.49;59.12
63556;BME280;49700;48.072;7.800;2023-04-08T08:29:19;99998.56;;;12.50;59.14
63556;BME280;49700;48.072;7.800;2023-04-08T08:31:44;99990.78;;;12.48;59.21
63556;BME280;49700;48.072;7.800;2023-04-08T08:34:10;99995.75;;;12.53;59.26
63556;BME280;49700;48.072;7.800;2023-04-08T08:36:35;99995.66;;;12.54;59.18
63556;BME280;49700;48.072;7.800;2023-04-08T08:39:01;99998.00;;;12.59;59.03
63556;BME280;49700;48.072;7.800;2023-04-08T08:41:26;99997.03;;;12.60;58.69
63556;BME280;49700;48.072;7.800;2023-04-08T08:43:52;100001.81;;;12.68;58.66
63556;BME280;49700;48.072;7.800;2023-04-08T08:46:18;100004.16;;;12.85;58.31
63556;BME280;49700;48.072;7.800;2023-04-08T08:48:43;100001.06;;;13.18;57.48
63556;BME280;49700;48.072;7.800;2023-04-08T08:51:10;100000.47;;;13.40;56.87
63556;BME280;49700;48.072;7.800;2023-04-08T08:53:36;99999.09;;;13.47;56.38
63556;BME280;49700;48.072;7.800;2023-04-08T08:56:02;100001.06;;;13.44;56.56
63556;BME280;49700;48.072;7.800;2023-04-08T08:58:28;100002.75;;;13.58;56.45
63556;BME280;49700;48.072;7.800;2023-04-08T09:00:53;100000.31;;;13.67;56.17
63556;BME280;49700;48.072;7.800;2023-04-08T09:03:23;100006.88;;;13.75;55.89
63556;BME280;49700;48.072;7.800;2023-04-08T09:06:00;100005.59;;;13.67;55.91
63556;BME280;49700;48.072;7.800;2023-04-08T09:11:09;100015.34;;;13.28;57.04
63556;BME280;49700;48.072;7.800;2023-04-08T09:13:35;100007.59;;;13.13;57.30
63556;BME280;49700;48.072;7.800;2023-04-08T09:16:03;100015.06;;;13.06;57.64
63556;BME280;49700;48.072;7.800;2023-04-08T09:18:29;100011.59;;;13.05;57.65
63556;BME280;49700;48.072;7.800;2023-04-08T09:20:55;100010.44;;;13.10;57.82
63556;BME280;49700;48.072;7.800;2023-04-08T09:23:20;100001.28;;;13.15;57.64
63556;BME280;49700;48.072;7.800;2023-04-08T09:25:46;100011.81;;;13.15;57.46
63556;BME280;49700;48.072;7.800;2023-04-08T09:28:20;100006.84;;;13.11;57.40
63556;BME280;49700;48.072;7.800;2023-04-08T09:30:46;100014.13;;;13.07;57.32
63556;BME280;49700;48.072;7.800;2023-04-08T09:33:12;100012.94;;;12.98;57.47
63556;BME280;49700;48.072;7.800;2023-04-08T09:35:37;100021.34;;;12.91;57.53
63556;BME280;49700;48.072;7.800;2023-04-08T09:38:03;100020.19;;;12.82;57.78
63556;BME280;49700;48.072;7.800;2023-04-08T09:40:31;100019.63;;;12.77;58.03
63556;BME280;49700;48.072;7.800;2023-04-08T09:43:04;100012.69;;;12.76;58.11
63556;BME280;49700;48.072;7.800;2023-04-08T09:45:32;100010.56;;;12.68;57.83
63556;BME280;49700;48.072;7.800;2023-04-08T09:48:16;100023.19;;;12.63;58.05
63556;BME280;49700;48.072;7.800;2023-04-08T09:50:49;100027.06;;;12.57;58.27
63556;BME280;49700;48.072;7.800;2023-04-08T09:53:29;100018.41;;;12.55;58.31
63556;BME280;49700;48.072;7.800;2023-04-08T09:55:59;100022.22;;;12.51;58.62
63556;BME280;49700;48.072;7.800;2023-04-08T09:58:42;100027.47;;;12.51;58.78
63556;BME280;49700;48.072;7.800;2023-04-08T10:01:13;100034.53;;;12.51;58.83
63556;BME280;49700;48.072;7.800;2023-04-08T10:03:48;100028.31;;;12.52;59.00
63556;BME280;49700;48.072;7.800;2023-04-08T10:06:16;100031.50;;;12.57;59.05
63556;BME280;49700;48.072;7.800;2023-04-08T10:08:43;100028.44;;;12.63;58.62
63556;BME280;49700;48.072;7.800;2023-04-08T10:11:08;100026.16;;;12.71;58.49
63556;BME280;49700;48.072;7.800;2023-04-08T10:13:35;100026.41;;;12.81;58.40
63556;BME280;49700;48.072;7.800;2023-04-08T10:16:21;100028.03;;;12.96;58.35
63556;BME280;49700;48.072;7.800;2023-04-08T10:18:49;100028.91;;;13.10;57.83
63556;BME280;49700;48.072;7.800;2023-04-08T10:21:39;100029.66;;;13.24;57.62
63556;BME280;49700;48.072;7.800;2023-04-08T10:24:12;100030.63;;;13.36;57.23
63556;BME280;49700;48.072;7.800;2023-04-08T10:26:42;100031.81;;;13.45;57.12
63556;BME280;49700;48.072;7.800;2023-04-08T10:29:31;100026.41;;;13.46;56.19
63556;BME280;49700;48.072;7.800;2023-04-08T10:31:56;100019.66;;;13.55;56.15
63556;BME280;49700;48.072;7.800;2023-04-08T10:34:23;100013.63;;;13.66;56.12
63556;BME280;49700;48.072;7.800;2023-04-08T10:36:51;100021.44;;;13.80;55.75
63556;BME280;49700;48.072;7.800;2023-04-08T10:39:17;100021.53;;;13.91;55.44
63556;BME280;49700;48.072;7.800;2023-04-08T10:41:43;100014.06;;;14.09;54.70
63556;BME280;49700;48.072;7.800;2023-04-08T10:46:42;100004.94;;;14.50;53.69
63556;BME280;49700;48.072;7.800;2023-04-08T10:49:08;100006.63;;;14.75;53.16
63556;BME280;49700;48.072;7.800;2023-04-08T10:51:33;100002.94;;;14.78;52.37
63556;BME280;49700;48.072;7.800;2023-04-08T10:54:08;100012.31;;;14.82;52.32
63556;BME280;49700;48.072;7.800;2023-04-08T10:56:42;100001.72;;;14.82;52.01
63556;BME280;49700;48.072;7.800;2023-04-08T10:59:08;100005.31;;;14.70;51.65
63556;BME280;49700;48.072;7.800;2023-04-08T11:01:40;100003.03;;;14.52;52.12
63556;BME280;49700;48.072;7.800;2023-04-08T11:04:10;99998.78;;;14.50;52.23
63556;BME280;49700;48.072;7.800;2023-04-08T11:06:36;99992.66;;;14.49;52.51
63556;BME280;49700;48.072;7.800;2023-04-08T11:09:02;100000.59;;;14.49;52.04
63556;BME280;49700;48.072;7.800;2023-04-08T11:11:29;99994.56;;;14.47;51.63
63556;BME280;49700;48.072;7.800;2023-04-08T11:13:55;99995.88;;;14.42;51.68
63556;BME280;49700;48.072;7.800;2023-04-08T11:16:21;100001.16;;;14.42;51.75
63556;BME280;49700;48.072;7.800;2023-04-08T11:18:49;99997.81;;;14.39;51.17
63556;BME280;49700;48.072;7.800;2023-04-08T11:21:15;100001.50;;;14.37;51.30
63556;BME280;49700;48.072;7.800;2023-04-08T11:23:41;100007.13;;;14.32;51.34
63556;BME280;49700;48.072;7.800;2023-04-08T11:26:07;99992.72;;;14.36;51.53
63556;BME280;49700;48.072;7.800;2023-04-08T11:28:34;99995.50;;;14.35;51.38
63556;BME280;49700;48.072;7.800;2023-04-08T11:31:00;99998.97;;;14.35;51.50
63556;BME280;49700;48.072;7.800;2023-04-08T11:33:31;99992.66;;;14.49;51.54
63556;BME280;49700;48.072;7.800;2023-04-08T11:35:56;99995.53;;;14.59;51.05
63556;BME280;49700;48.072;7.800;2023-04-08T11:38:23;99999.38;;;14.66;50.70
63556;BME280;49700;48.072;7.800;2023-04-08T11:40:53;99990.16;;;14.72;50.41
63556;BME280;49700;48.072;7.800;2023-04-08T11:43:19;99990.78;;;14.75;49.97
63556;BME280;49700;48.072;7.800;2023-04-08T11:45:45;99990.03;;;14.73;49.44
63556;BME280;49700;48.072;7.800;2023-04-08T11:48:11;99987.91;;;14.78;49.26
63556;BME280;49700;48.072;7.800;2023-04-08T11:50:38;99974.09;;;14.86;49.41
63556;BME280;49700;48.072;7.800;2023-04-08T11:53:18;99977.59;;;14.98;49.16
63556;BME280;49700;48.072;7.800;2023-04-08T11:55:44;99983.16;;;15.06;49.24
63556;BME280;49700;48.072;7.800;2023-04-08T11:58:09;99977.19;;;15.15;48.80
63556;BME280;49700;48.072;7.800;2023-04-08T12:00:38;99974.66;;;15.25;48.47
63556;BME280;49700;48.072;7.800;2023-04-08T12:03:03;99968.75;;;15.33;48.28
63556;BME280;49700;48.072;7.800;2023-04-08T12:05:30;99968.03;;;15.31;47.91
63556;BME280;49700;48.072;7.800;2023-04-08T12:07:55;99970.19;;;15.14;47.79
63556;BME280;49700;48.072;7.800;2023-04-08T12:10:21;99971.59;;;14.96;48.42
63556;BME280;49700;48.072;7.800;2023-04-08T12:12:49;99971.50;;;15.09;48.25
63556;BME280;49700;48.072;7.800;2023-04-08T12:15:15;99962.75;;;15.31;48.15
63556;BME280;49700;48.072;7.800;2023-04-08T12:17:40;99953.50;;;15.59;47.85
63556;BME280;49700;48.072;7.800;2023-04-08T12:20:08;99962.03;;;15.85;47.13
63556;BME280;49700;48.072;7.800;2023-04-08T12:22:33;99955.88;;;16.07;46.50
63556;BME280;49700;48.072;7.800;2023-04-08T12:24:59;99954.25;;;16.27;45.87
63556;BME280;49700;48.072;7.800;2023-04-08T12:27:27;99960.22;;;16.40;44.88
63556;BME280;49700;48.072;7.800;2023-04-08T12:29:52;99955.13;;;16.48;44.65
63556;BME280;49700;48.072;7.800;2023-04-08T12:32:17;99951.69;;;16.57;44.30
63556;BME280;49700;48.072;7.800;2023-04-08T12:34:43;99954.94;;;16.61;44.30
63556;BME280;49700;48.072;7.800;2023-04-08T12:37:08;99957.59;;;16.61;44.34
63556;BME280;49700;48.072;7.800;2023-04-08T12:39:34;99951.28;;;16.41;44.02
63556;BME280;49700;48.072;7.800;2023-04-08T12:42:00;99948.72;;;16.19;44.30
63556;BME280;49700;48.072;7.800;2023-04-08T12:44:25;99955.28;;;15.92;44.68
63556;BME280;49700;48.072;7.800;2023-04-08T12:46:51;99961.56;;;15.68;45.01
63556;BME280;49700;48.072;7.800;2023-04-08T12:49:16;99963.00;;;15.50;45.45
63556;BME280;49700;48.072;7.800;2023-04-08T12:51:42;99959.00;;;15.33;45.36
63556;BME280;49700;48.072;7.800;2023-04-08T12:54:07;99960.09;;;15.19;45.62
63556;BME280;49700;48.072;7.800;2023-04-08T12:56:33;99955.28;;;15.13;45.93
63556;BME280;49700;48.072;7.800;2023-04-08T12:58:58;99956.25;;;15.12;46.12
63556;BME280;49700;48.072;7.800;2023-04-08T13:01:25;99961.06;;;15.07;46.27
63556;BME280;49700;48.072;7.800;2023-04-08T13:03:50;99964.28;;;14.99;46.41
63556;BME280;49700;48.072;7.800;2023-04-08T13:06:16;99963.19;;;15.02;46.93
63556;BME280;49700;48.072;7.800;2023-04-08T13:08:44;99963.31;;;15.00;46.87
63556;BME280;49700;48.072;7.800;2023-04-08T13:11:10;99973.16;;;14.98;46.86
63556;BME280;49700;48.072;7.800;2023-04-08T13:13:35;99962.44;;;14.89;46.64
63556;BME280;49700;48.072;7.800;2023-04-08T13:16:01;99965.09;;;14.89;47.01
63556;BME280;49700;48.072;7.800;2023-04-08T13:18:27;99963.03;;;14.92;47.19